sensor_id;sensor_type;location;lat;lon;timestamp;P1;durP1;ratioP1;P2;durP2;ratioP2
5805;SDS011;2929;50.810;8.342;2023-11-19T00:00:06;1.40;;;1.30;;
5805;SDS011;2929;50.810;8.342;2023-11-19T00:02:37;1.13;;;1.10;;
5805;SDS011;2929;50.810;8.342;2023-11-19T00:05:04;0.97;;;0.97;;
5805;SDS011;2929;50.810;8.342;2023-11-19T00:07:35;3.10;;;1.27;;
5805;SDS011;2929;50.810;8.342;2023-11-19T00:10:05;1.30;;;1.20;;
5805;SDS011;2929;50.810;8.342;2023-11-19T00:12:34;1.03;;;0.93;;
5805;SDS011;2929;50.810;8.342;2023-11-19T00:15:02;1.57;;;1.20;;
5805;SDS011;2929;50.810;8.342;2023-11-19T00:17:30;1.47;;;1.37;;
5805;SDS011;2929;50.810;8.342;2023-11-19T00:19:58;1.30;;;1.20;;
5805;SDS011;2929;50.810;8.342;2023-11-19T00:22:25;1.17;;;1.17;;
5805;SDS011;2929;50.810;8.342;2023-11-19T00:24:55;1.57;;;1.47;;
5805;SDS011;2929;50.810;8.342;2023-11-19T00:27:23;1.37;;;1.27;;
5805;SDS011;2929;50.810;8.342;2023-11-19T00:29:51;1.50;;;1.40;;
5805;SDS011;2929;50.810;8.342;2023-11-19T00:32:19;1.67;;;1.57;;
5805;SDS011;2929;50.810;8.342;2023-11-19T00:34:47;1.47;;;1.37;;
5805;SDS011;2929;50.810;8.342;2023-11-19T00:37:14;1.73;;;1.57;;
5805;SDS011;2929;50.810;8.342;2023-11-19T00:39:42;1.93;;;1.73;;
5805;SDS011;2929;50.810;8.342;2023-11-19T00:42:12;1.90;;;1.70;;
5805;SDS011;2929;50.810;8.342;2023-11-19T00:44:40;3.07;;;1.40;;
5805;SDS011;2929;50.810;8.342;2023-11-19T00:47:08;3.20;;;2.30;;
5805;SDS011;2929;50.810;8.342;2023-11-19T00:49:36;1.50;;;1.40;;
5805;SDS011;2929;50.810;8.342;2023-11-19T00:52:04;1.90;;;1.80;;
5805;SDS011;2929;50.810;8.342;2023-11-19T00:54:32;1.87;;;1.77;;
5805;SDS011;2929;50.810;8.342;2023-11-19T01:03:52;3.20;;;1.70;;
5805;SDS011;2929;50.810;8.342;2023-11-19T01:06:26;1.73;;;1.63;;
5805;SDS011;2929;50.810;8.342;2023-11-19T01:08:54;1.47;;;1.40;;
5805;SDS011;2929;50.810;8.342;2023-11-19T01:11:22;2.17;;;1.97;;
5805;SDS011;2929;50.810;8.342;2023-11-19T01:13:50;1.73;;;1.63;;
5805;SDS011;2929;50.810;8.342;2023-11-19T01:16:19;2.20;;;1.97;;
5805;SDS011;2929;50.810;8.342;2023-11-19T01:18:47;3.63;;;1.90;;
5805;SDS011;2929;50.810;8.342;2023-11-19T01:21:16;1.63;;;1.53;;
5805;SDS011;2929;50.810;8.342;2023-11-19T01:23:44;1.57;;;1.47;;
5805;SDS011;2929;50.810;8.342;2023-11-19T01:26:12;1.87;;;1.77;;
5805;SDS011;2929;50.810;8.342;2023-11-19T01:28:40;2.10;;;1.90;;
5805;SDS011;2929;50.810;8.342;2023-11-19T01:31:11;2.17;;;1.60;;
5805;SDS011;2929;50.810;8.342;2023-11-19T01:33:39;2.10;;;1.30;;
5805;SDS011;2929;50.810;8.342;2023-11-19T01:36:07;2.33;;;1.23;;
5805;SDS011;2929;50.810;8.342;2023-11-19T01:38:37;1.97;;;1.60;;
5805;SDS011;2929;50.810;8.342;2023-11-19T01:41:05;1.50;;;1.40;;
5805;SDS011;2929;50.810;8.342;2023-11-19T01:43:33;4.77;;;1.90;;
5805;SDS011;2929;50.810;8.342;2023-11-19T01:46:02;1.93;;;1.53;;
5805;SDS011;2929;50.810;8.342;2023-11-19T01:48:29;1.90;;;1.70;;
5805;SDS011;2929;50.810;8.342;2023-11-19T01:50:58;1.87;;;1.67;;
5805;SDS011;2929;50.810;8.342;2023-11-19T01:53:27;1.60;;;1.50;;
5805;SDS011;2929;50.810;8.342;2023-11-19T01:55:58;1.90;;;1.80;;
5805;SDS011;2929;50.810;8.342;2023-11-19T01:58:31;2.27;;;2.07;;
5805;SDS011;2929;50.810;8.342;2023-11-19T02:00:59;1.97;;;1.80;;
5805;SDS011;2929;50.810;8.342;2023-11-19T02:03:29;2.73;;;2.03;;
5805;SDS011;2929;50.810;8.342;2023-11-19T02:05:58;6.53;;;3.17;;
5805;SDS011;2929;50.810;8.342;2023-11-19T02:08:26;2.23;;;2.03;;
5805;SDS011;2929;50.810;8.342;2023-11-19T02:10:55;11.13;;;5.67;;
5805;SDS011;2929;50.810;8.342;2023-11-19T02:13:25;6.13;;;3.50;;
5805;SDS011;2929;50.810;8.342;2023-11-19T02:15:56;2.17;;;1.97;;
5805;SDS011;2929;50.810;8.342;2023-11-19T02:18:25;9.13;;;3.20;;
5805;SDS011;2929;50.810;8.342;2023-11-19T02:20:54;2.10;;;1.80;;
5805;SDS011;2929;50.810;8.342;2023-11-19T02:23:21;2.50;;;2.30;;
5805;SDS011;2929;50.810;8.342;2023-11-19T02:25:56;2.17;;;1.97;;
5805;SDS011;2929;50.810;8.342;2023-11-19T02:28:28;2.30;;;2.10;;
5805;SDS011;2929;50.810;8.342;2023-11-19T02:30:56;2.17;;;1.90;;
5805;SDS011;2929;50.810;8.342;2023-11-19T02:33:23;1.93;;;1.80;;
5805;SDS011;2929;50.810;8.342;2023-11-19T02:35:51;2.07;;;1.87;;
5805;SDS011;2929;50.810;8.342;2023-11-19T02:38:21;2.60;;;1.60;;
5805;SDS011;2929;50.810;8.342;2023-11-19T02:40:48;2.10;;;2.00;;
5805;SDS011;2929;50.810;8.342;2023-11-19T02:43:17;1.90;;;1.70;;
5805;SDS011;2929;50.810;8.342;2023-11-19T02:45:46;1.40;;;1.30;;
5805;SDS011;2929;50.810;8.342;2023-11-19T02:48:13;1.63;;;1.53;;
5805;SDS011;2929;50.810;8.342;2023-11-19T02:50:41;4.17;;;2.00;;
5805;SDS011;2929;50.810;8.342;2023-11-19T02:53:09;1.37;;;1.27;;
5805;SDS011;2929;50.810;8.342;2023-11-19T02:55:38;1.50;;;1.40;;
5805;SDS011;2929;50.810;8.342;2023-11-19T02:58:06;1.83;;;1.30;;
5805;SDS011;2929;50.810;8.342;2023-11-19T03:00:46;2.57;;;1.27;;
5805;SDS011;2929;50.810;8.342;2023-11-19T03:03:19;2.20;;;1.20;;
5805;SDS011;2929;50.810;8.342;2023-11-19T03:05:48;1.67;;;1.57;;
5805;SDS011;2929;50.810;8.342;2023-11-19T03:08:20;1.40;;;1.30;;
5805;SDS011;2929;50.810;8.342;2023-11-19T03:10:48;9.23;;;1.30;;
5805;SDS011;2929;50.810;8.342;2023-11-19T03:13:16;2.13;;;1.47;;
5805;SDS011;2929;50.810;8.342;2023-11-19T03:15:44;6.03;;;1.80;;
5805;SDS011;2929;50.810;8.342;2023-11-19T03:18:13;1.13;;;1.07;;
5805;SDS011;2929;50.810;8.342;2023-11-19T03:20:41;1.40;;;1.30;;
5805;SDS011;2929;50.810;8.342;2023-11-19T03:23:09;3.73;;;1.00;;
5805;SDS011;2929;50.810;8.342;2023-11-19T03:25:37;1.27;;;1.13;;
5805;SDS011;2929;50.810;8.342;2023-11-19T03:28:04;1.33;;;1.23;;
5805;SDS011;2929;50.810;8.342;2023-11-19T03:30:32;3.43;;;1.20;;
5805;SDS011;2929;50.810;8.342;2023-11-19T03:33:00;2.50;;;1.03;;
5805;SDS011;2929;50.810;8.342;2023-11-19T03:35:29;2.03;;;1.10;;
5805;SDS011;2929;50.810;8.342;2023-11-19T03:37:58;0.90;;;0.90;;
5805;SDS011;2929;50.810;8.342;2023-11-19T03:40:26;1.43;;;1.00;;
5805;SDS011;2929;50.810;8.342;2023-11-19T03:42:55;0.90;;;0.90;;
5805;SDS011;2929;50.810;8.342;2023-11-19T03:45:23;1.00;;;0.80;;
5805;SDS011;2929;50.810;8.342;2023-11-19T03:47:51;3.70;;;1.07;;
5805;SDS011;2929;50.810;8.342;2023-11-19T03:50:20;2.60;;;0.90;;
5805;SDS011;2929;50.810;8.342;2023-11-19T03:52:49;1.27;;;0.80;;
5805;SDS011;2929;50.810;8.342;2023-11-19T03:55:19;1.53;;;0.77;;
5805;SDS011;2929;50.810;8.342;2023-11-19T03:57:47;2.03;;;0.80;;
5805;SDS011;2929;50.810;8.342;2023-11-19T04:00:15;1.10;;;0.90;;
5805;SDS011;2929;50.810;8.342;2023-11-19T04:02:45;2.43;;;0.70;;
5805;SDS011;2929;50.810;8.342;2023-11-19T04:05:13;1.90;;;1.00;;
5805;SDS011;2929;50.810;8.342;2023-11-19T04:07:40;1.07;;;0.80;;
5805;SDS011;2929;50.810;8.342;2023-11-19T04:10:09;1.07;;;0.77;;
5805;SDS011;2929;50.810;8.342;2023-11-19T04:12:36;3.00;;;0.93;;
5805;SDS011;2929;50.810;8.342;2023-11-19T04:15:04;0.90;;;0.70;;
5805;SDS011;2929;50.810;8.342;2023-11-19T04:17:31;8.33;;;1.00;;
5805;SDS011;2929;50.810;8.342;2023-11-19T04:19:59;1.97;;;1.10;;
5805;SDS011;2929;50.810;8.342;2023-11-19T04:22:26;1.27;;;0.83;;
5805;SDS011;2929;50.810;8.342;2023-11-19T04:24:58;2.93;;;0.87;;
5805;SDS011;2929;50.810;8.342;2023-11-19T04:27:27;1.20;;;0.80;;
5805;SDS011;2929;50.810;8.342;2023-11-19T04:29:55;2.30;;;0.90;;
5805;SDS011;2929;50.810;8.342;2023-11-19T04:32:22;3.40;;;0.90;;
5805;SDS011;2929;50.810;8.342;2023-11-19T04:34:50;2.23;;;1.07;;
5805;SDS011;2929;50.810;8.342;2023-11-19T04:37:17;1.00;;;0.90;;
5805;SDS011;2929;50.810;8.342;2023-11-19T04:39:45;0.97;;;0.90;;
5805;SDS011;2929;50.810;8.342;2023-11-19T04:42:12;3.93;;;1.00;;
5805;SDS011;2929;50.810;8.342;2023-11-19T04:44:44;2.03;;;0.80;;
5805;SDS011;2929;50.810;8.342;2023-11-19T04:47:11;1.20;;;0.70;;
5805;SDS011;2929;50.810;8.342;2023-11-19T04:49:39;1.23;;;0.90;;
5805;SDS011;2929;50.810;8.342;2023-11-19T04:52:08;4.00;;;0.90;;
5805;SDS011;2929;50.810;8.342;2023-11-19T04:54:40;4.23;;;0.97;;
5805;SDS011;2929;50.810;8.342;2023-11-19T04:57:08;2.10;;;1.17;;
5805;SDS011;2929;50.810;8.342;2023-11-19T04:59:36;5.10;;;1.30;;
5805;SDS011;2929;50.810;8.342;2023-11-19T05:02:05;1.83;;;0.97;;
5805;SDS011;2929;50.810;8.342;2023-11-19T05:04:32;4.13;;;1.10;;
5805;SDS011;2929;50.810;8.342;2023-11-19T05:07:00;2.90;;;1.07;;
5805;SDS011;2929;50.810;8.342;2023-11-19T05:09:27;4.77;;;1.03;;
5805;SDS011;2929;50.810;8.342;2023-11-19T05:11:54;3.23;;;1.00;;
5805;SDS011;2929;50.810;8.342;2023-11-19T05:14:22;2.40;;;1.20;;
5805;SDS011;2929;50.810;8.342;2023-11-19T05:16:49;2.30;;;1.10;;
5805;SDS011;2929;50.810;8.342;2023-11-19T05:19:18;4.00;;;0.93;;
5805;SDS011;2929;50.810;8.342;2023-11-19T05:21:45;1.10;;;1.00;;
5805;SDS011;2929;50.810;8.342;2023-11-19T05:24:12;2.60;;;1.00;;
5805;SDS011;2929;50.810;8.342;2023-11-19T05:26:41;1.23;;;1.00;;
5805;SDS011;2929;50.810;8.342;2023-11-19T05:29:09;3.47;;;1.10;;
5805;SDS011;2929;50.810;8.342;2023-11-19T05:31:37;16.47;;;1.73;;
5805;SDS011;2929;50.810;8.342;2023-11-19T05:34:04;3.33;;;1.43;;
5805;SDS011;2929;50.810;8.342;2023-11-19T05:36:33;4.57;;;1.10;;
5805;SDS011;2929;50.810;8.342;2023-11-19T05:39:01;4.00;;;1.20;;
5805;SDS011;2929;50.810;8.342;2023-11-19T05:41:28;4.97;;;1.27;;
5805;SDS011;2929;50.810;8.342;2023-11-19T05:43:55;5.83;;;2.30;;
5805;SDS011;2929;50.810;8.342;2023-11-19T05:46:22;4.67;;;1.17;;
5805;SDS011;2929;50.810;8.342;2023-11-19T05:48:50;2.63;;;1.30;;
5805;SDS011;2929;50.810;8.342;2023-11-19T05:51:18;8.33;;;1.43;;
5805;SDS011;2929;50.810;8.342;2023-11-19T05:53:46;5.60;;;1.50;;
5805;SDS011;2929;50.810;8.342;2023-11-19T05:56:15;3.43;;;1.00;;
5805;SDS011;2929;50.810;8.342;2023-11-19T05:58:46;6.17;;;1.40;;
5805;SDS011;2929;50.810;8.342;2023-11-19T06:01:14;5.60;;;1.03;;
5805;SDS011;2929;50.810;8.342;2023-11-19T06:03:42;1.70;;;1.03;;
5805;SDS011;2929;50.810;8.342;2023-11-19T06:06:18;4.83;;;1.40;;
5805;SDS011;2929;50.810;8.342;2023-11-19T06:08:46;7.20;;;1.30;;
5805;SDS011;2929;50.810;8.342;2023-11-19T06:11:15;7.97;;;1.57;;
5805;SDS011;2929;50.810;8.342;2023-11-19T06:13:45;7.10;;;1.83;;
5805;SDS011;2929;50.810;8.342;2023-11-19T06:16:13;9.27;;;2.03;;
5805;SDS011;2929;50.810;8.342;2023-11-19T06:18:40;4.40;;;1.50;;
5805;SDS011;2929;50.810;8.342;2023-11-19T06:21:09;10.63;;;2.03;;
5805;SDS011;2929;50.810;8.342;2023-11-19T06:23:36;12.20;;;1.60;;
5805;SDS011;2929;50.810;8.342;2023-11-19T06:26:05;19.33;;;1.90;;
5805;SDS011;2929;50.810;8.342;2023-11-19T06:28:32;11.80;;;1.70;;
5805;SDS011;2929;50.810;8.342;2023-11-19T06:30:59;12.63;;;2.10;;
5805;SDS011;2929;50.810;8.342;2023-11-19T06:33:26;20.83;;;2.37;;
5805;SDS011;2929;50.810;8.342;2023-11-19T06:35:54;9.87;;;1.90;;
5805;SDS011;2929;50.810;8.342;2023-11-19T06:38:21;14.17;;;2.70;;
5805;SDS011;2929;50.810;8.342;2023-11-19T06:40:48;12.13;;;2.10;;
5805;SDS011;2929;50.810;8.342;2023-11-19T06:43:17;7.13;;;2.10;;
5805;SDS011;2929;50.810;8.342;2023-11-19T06:45:44;12.37;;;1.93;;
5805;SDS011;2929;50.810;8.342;2023-11-19T06:48:13;10.60;;;2.30;;
5805;SDS011;2929;50.810;8.342;2023-11-19T06:51:17;13.53;;;1.90;;
5805;SDS011;2929;50.810;8.342;2023-11-19T06:53:45;10.60;;;2.20;;
5805;SDS011;2929;50.810;8.342;2023-11-19T06:56:20;10.07;;;2.00;;
5805;SDS011;2929;50.810;8.342;2023-11-19T06:58:49;7.67;;;2.00;;
5805;SDS011;2929;50.810;8.342;2023-11-19T07:01:16;14.67;;;2.40;;
5805;SDS011;2929;50.810;8.342;2023-11-19T07:03:44;14.47;;;1.57;;
5805;SDS011;2929;50.810;8.342;2023-11-19T07:06:12;14.40;;;2.60;;
5805;SDS011;2929;50.810;8.342;2023-11-19T07:08:40;9.63;;;2.03;;
5805;SDS011;2929;50.810;8.342;2023-11-19T07:11:10;9.50;;;2.80;;
5805;SDS011;2929;50.810;8.342;2023-11-19T07:13:39;22.63;;;4.60;;
5805;SDS011;2929;50.810;8.342;2023-11-19T07:16:08;17.50;;;2.93;;
5805;SDS011;2929;50.810;8.342;2023-11-19T07:18:36;14.33;;;2.90;;
5805;SDS011;2929;50.810;8.342;2023-11-19T07:21:04;5.00;;;1.70;;
5805;SDS011;2929;50.810;8.342;2023-11-19T07:23:32;11.63;;;2.70;;
5805;SDS011;2929;50.810;8.342;2023-11-19T07:26:00;12.20;;;2.43;;
5805;SDS011;2929;50.810;8.342;2023-11-19T07:28:27;14.70;;;2.30;;
5805;SDS011;2929;50.810;8.342;2023-11-19T07:30:55;13.43;;;3.30;;
5805;SDS011;2929;50.810;8.342;2023-11-19T07:33:23;16.03;;;2.77;;
5805;SDS011;2929;50.810;8.342;2023-11-19T07:35:51;14.70;;;2.80;;
5805;SDS011;2929;50.810;8.342;2023-11-19T07:38:19;11.63;;;2.30;;
5805;SDS011;2929;50.810;8.342;2023-11-19T07:40:46;15.17;;;3.07;;
5805;SDS011;2929;50.810;8.342;2023-11-19T07:43:13;17.53;;;2.60;;
5805;SDS011;2929;50.810;8.342;2023-11-19T07:45:41;12.57;;;2.00;;
5805;SDS011;2929;50.810;8.342;2023-11-19T07:48:10;12.47;;;2.50;;
5805;SDS011;2929;50.810;8.342;2023-11-19T07:50:39;17.17;;;3.57;;
5805;SDS011;2929;50.810;8.342;2023-11-19T07:53:06;18.00;;;2.90;;
5805;SDS011;2929;50.810;8.342;2023-11-19T07:55:35;13.23;;;2.67;;
5805;SDS011;2929;50.810;8.342;2023-11-19T07:58:03;10.07;;;2.80;;
5805;SDS011;2929;50.810;8.342;2023-11-19T08:00:31;17.83;;;2.50;;
5805;SDS011;2929;50.810;8.342;2023-11-19T08:02:58;17.03;;;3.70;;
5805;SDS011;2929;50.810;8.342;2023-11-19T08:05:25;13.40;;;2.97;;
5805;SDS011;2929;50.810;8.342;2023-11-19T08:07:54;17.50;;;4.27;;
5805;SDS011;2929;50.810;8.342;2023-11-19T08:10:21;21.47;;;3.20;;
5805;SDS011;2929;50.810;8.342;2023-11-19T08:12:48;17.57;;;3.17;;
5805;SDS011;2929;50.810;8.342;2023-11-19T08:15:16;23.70;;;3.27;;
5805;SDS011;2929;50.810;8.342;2023-11-19T08:17:43;15.30;;;5.07;;
5805;SDS011;2929;50.810;8.342;2023-11-19T08:20:11;19.60;;;3.40;;
5805;SDS011;2929;50.810;8.342;2023-11-19T08:22:39;11.27;;;2.63;;
5805;SDS011;2929;50.810;8.342;2023-11-19T08:25:08;15.80;;;2.63;;
5805;SDS011;2929;50.810;8.342;2023-11-19T08:27:35;18.53;;;3.33;;
5805;SDS011;2929;50.810;8.342;2023-11-19T08:30:03;12.03;;;2.50;;
5805;SDS011;2929;50.810;8.342;2023-11-19T08:32:31;34.47;;;3.67;;
5805;SDS011;2929;50.810;8.342;2023-11-19T08:34:58;11.80;;;1.97;;
5805;SDS011;2929;50.810;8.342;2023-11-19T08:37:25;22.00;;;2.40;;
5805;SDS011;2929;50.810;8.342;2023-11-19T08:39:53;10.33;;;2.33;;
5805;SDS011;2929;50.810;8.342;2023-11-19T08:42:21;15.97;;;2.63;;
5805;SDS011;2929;50.810;8.342;2023-11-19T08:44:49;25.90;;;2.70;;
5805;SDS011;2929;50.810;8.342;2023-11-19T08:47:19;16.63;;;3.37;;
5805;SDS011;2929;50.810;8.342;2023-11-19T08:49:47;15.07;;;2.47;;
5805;SDS011;2929;50.810;8.342;2023-11-19T08:55:51;21.53;;;3.43;;
5805;SDS011;2929;50.810;8.342;2023-11-19T08:58:19;14.50;;;3.50;;
5805;SDS011;2929;50.810;8.342;2023-11-19T09:00:46;19.37;;;3.00;;
5805;SDS011;2929;50.810;8.342;2023-11-19T09:03:14;21.17;;;3.90;;
5805;SDS011;2929;50.810;8.342;2023-11-19T09:05:41;20.37;;;3.60;;
5805;SDS011;2929;50.810;8.342;2023-11-19T09:08:08;13.10;;;2.53;;
5805;SDS011;2929;50.810;8.342;2023-11-19T09:10:36;20.40;;;3.00;;
5805;SDS011;2929;50.810;8.342;2023-11-19T09:13:04;14.87;;;2.50;;
5805;SDS011;2929;50.810;8.342;2023-11-19T09:15:32;19.80;;;3.87;;
5805;SDS011;2929;50.810;8.342;2023-11-19T09:17:59;17.23;;;2.80;;
5805;SDS011;2929;50.810;8.342;2023-11-19T09:20:27;13.53;;;3.63;;
5805;SDS011;2929;50.810;8.342;2023-11-19T09:22:57;19.80;;;2.60;;
5805;SDS011;2929;50.810;8.342;2023-11-19T09:25:25;12.60;;;2.30;;
5805;SDS011;2929;50.810;8.342;2023-11-19T09:27:52;13.67;;;2.70;;
5805;SDS011;2929;50.810;8.342;2023-11-19T09:30:19;9.20;;;1.83;;
5805;SDS011;2929;50.810;8.342;2023-11-19T09:32:49;11.20;;;2.10;;
5805;SDS011;2929;50.810;8.342;2023-11-19T09:35:16;6.47;;;1.70;;
5805;SDS011;2929;50.810;8.342;2023-11-19T09:37:44;13.60;;;3.00;;
5805;SDS011;2929;50.810;8.342;2023-11-19T09:40:11;23.57;;;2.47;;
5805;SDS011;2929;50.810;8.342;2023-11-19T09:42:40;16.93;;;2.43;;
5805;SDS011;2929;50.810;8.342;2023-11-19T09:45:10;13.60;;;2.57;;
5805;SDS011;2929;50.810;8.342;2023-11-19T09:47:39;16.47;;;3.20;;
5805;SDS011;2929;50.810;8.342;2023-11-19T09:50:08;7.70;;;2.00;;
5805;SDS011;2929;50.810;8.342;2023-11-19T09:52:36;16.53;;;2.80;;
5805;SDS011;2929;50.810;8.342;2023-11-19T09:55:04;16.03;;;1.87;;
5805;SDS011;2929;50.810;8.342;2023-11-19T09:57:32;22.80;;;2.17;;
5805;SDS011;2929;50.810;8.342;2023-11-19T10:00:03;12.97;;;2.60;;
5805;SDS011;2929;50.810;8.342;2023-11-19T10:02:33;12.13;;;2.23;;
5805;SDS011;2929;50.810;8.342;2023-11-19T10:05:02;29.97;;;2.93;;
5805;SDS011;2929;50.810;8.342;2023-11-19T10:07:32;12.53;;;2.83;;
5805;SDS011;2929;50.810;8.342;2023-11-19T10:10:00;26.50;;;2.90;;
5805;SDS011;2929;50.810;8.342;2023-11-19T10:16:03;11.80;;;2.40;;
5805;SDS011;2929;50.810;8.342;2023-11-19T10:18:31;20.77;;;2.60;;
5805;SDS011;2929;50.810;8.342;2023-11-19T10:21:03;17.43;;;2.57;;
5805;SDS011;2929;50.810;8.342;2023-11-19T10:23:41;16.87;;;2.90;;
5805;SDS011;2929;50.810;8.342;2023-11-19T10:26:15;21.50;;;2.93;;
5805;SDS011;2929;50.810;8.342;2023-11-19T10:28:43;20.03;;;2.53;;
5805;SDS011;2929;50.810;8.342;2023-11-19T10:31:12;26.03;;;2.77;;
5805;SDS011;2929;50.810;8.342;2023-11-19T10:33:39;20.70;;;2.30;;
5805;SDS011;2929;50.810;8.342;2023-11-19T10:36:07;18.33;;;3.13;;
5805;SDS011;2929;50.810;8.342;2023-11-19T10:38:36;22.37;;;3.63;;
5805;SDS011;2929;50.810;8.342;2023-11-19T10:41:04;22.43;;;3.07;;
5805;SDS011;2929;50.810;8.342;2023-11-19T10:43:41;13.80;;;2.57;;
5805;SDS011;2929;50.810;8.342;2023-11-19T10:46:10;18.23;;;3.70;;
5805;SDS011;2929;50.810;8.342;2023-11-19T10:48:38;15.13;;;2.90;;
5805;SDS011;2929;50.810;8.342;2023-11-19T10:51:06;19.13;;;2.93;;
5805;SDS011;2929;50.810;8.342;2023-11-19T10:53:34;10.03;;;1.70;;
5805;SDS011;2929;50.810;8.342;2023-11-19T10:56:06;20.00;;;3.50;;
5805;SDS011;2929;50.810;8.342;2023-11-19T10:58:35;16.37;;;2.70;;
5805;SDS011;2929;50.810;8.342;2023-11-19T11:01:07;27.37;;;3.50;;
5805;SDS011;2929;50.810;8.342;2023-11-19T11:03:38;16.00;;;3.30;;
5805;SDS011;2929;50.810;8.342;2023-11-19T11:06:06;19.27;;;2.83;;
5805;SDS011;2929;50.810;8.342;2023-11-19T11:08:35;24.33;;;3.07;;
5805;SDS011;2929;50.810;8.342;2023-11-19T11:11:03;20.10;;;3.60;;
5805;SDS011;2929;50.810;8.342;2023-11-19T11:13:33;19.23;;;3.30;;
5805;SDS011;2929;50.810;8.342;2023-11-19T11:16:01;18.93;;;3.37;;
5805;SDS011;2929;50.810;8.342;2023-11-19T11:18:29;22.97;;;3.27;;
5805;SDS011;2929;50.810;8.342;2023-11-19T11:21:40;14.47;;;2.53;;
5805;SDS011;2929;50.810;8.342;2023-11-19T11:27:28;24.27;;;3.47;;
5805;SDS011;2929;50.810;8.342;2023-11-19T11:30:04;32.47;;;4.47;;
5805;SDS011;2929;50.810;8.342;2023-11-19T11:32:33;20.43;;;3.40;;
5805;SDS011;2929;50.810;8.342;2023-11-19T11:37:53;20.93;;;2.60;;
5805;SDS011;2929;50.810;8.342;2023-11-19T11:40:23;28.33;;;2.90;;
5805;SDS011;2929;50.810;8.342;2023-11-19T11:42:52;18.50;;;2.40;;
5805;SDS011;2929;50.810;8.342;2023-11-19T11:45:20;22.67;;;4.27;;
5805;SDS011;2929;50.810;8.342;2023-11-19T11:48:11;16.37;;;2.83;;
5805;SDS011;2929;50.810;8.342;2023-11-19T11:50:52;16.17;;;2.97;;
5805;SDS011;2929;50.810;8.342;2023-11-19T11:53:30;17.47;;;2.73;;
5805;SDS011;2929;50.810;8.342;2023-11-19T11:55:59;13.00;;;3.40;;
5805;SDS011;2929;50.810;8.342;2023-11-19T11:58:32;20.53;;;3.37;;
5805;SDS011;2929;50.810;8.342;2023-11-19T12:01:03;23.63;;;3.70;;
5805;SDS011;2929;50.810;8.342;2023-11-19T12:03:32;13.10;;;2.80;;
5805;SDS011;2929;50.810;8.342;2023-11-19T12:06:00;17.50;;;2.80;;
5805;SDS011;2929;50.810;8.342;2023-11-19T12:08:28;20.43;;;3.27;;
5805;SDS011;2929;50.810;8.342;2023-11-19T12:10:58;20.53;;;2.90;;
5805;SDS011;2929;50.810;8.342;2023-11-19T12:13:42;17.83;;;3.17;;
5805;SDS011;2929;50.810;8.342;2023-11-19T12:16:12;15.13;;;3.33;;
5805;SDS011;2929;50.810;8.342;2023-11-19T12:18:40;16.37;;;2.33;;
5805;SDS011;2929;50.810;8.342;2023-11-19T12:21:08;14.97;;;2.90;;
5805;SDS011;2929;50.810;8.342;2023-11-19T12:27:10;20.63;;;3.37;;
5805;SDS011;2929;50.810;8.342;2023-11-19T12:29:47;13.97;;;3.13;;
5805;SDS011;2929;50.810;8.342;2023-11-19T12:35:09;15.80;;;2.90;;
5805;SDS011;2929;50.810;8.342;2023-11-19T12:37:41;17.50;;;3.50;;
5805;SDS011;2929;50.810;8.342;2023-11-19T12:42:46;20.83;;;3.17;;
5805;SDS011;2929;50.810;8.342;2023-11-19T12:45:14;10.33;;;2.50;;
5805;SDS011;2929;50.810;8.342;2023-11-19T12:47:42;16.67;;;3.00;;
5805;SDS011;2929;50.810;8.342;2023-11-19T12:50:11;20.90;;;2.83;;
5805;SDS011;2929;50.810;8.342;2023-11-19T12:52:39;23.83;;;3.20;;
5805;SDS011;2929;50.810;8.342;2023-11-19T12:57:49;18.87;;;3.37;;
5805;SDS011;2929;50.810;8.342;2023-11-19T13:00:21;13.80;;;2.50;;
5805;SDS011;2929;50.810;8.342;2023-11-19T13:02:49;11.17;;;1.67;;
5805;SDS011;2929;50.810;8.342;2023-11-19T13:08:35;18.60;;;3.50;;
5805;SDS011;2929;50.810;8.342;2023-11-19T13:17:47;18.70;;;3.13;;
5805;SDS011;2929;50.810;8.342;2023-11-19T13:20:21;15.37;;;2.97;;
5805;SDS011;2929;50.810;8.342;2023-11-19T13:27:17;16.80;;;3.00;;
5805;SDS011;2929;50.810;8.342;2023-11-19T13:29:54;10.27;;;2.50;;
5805;SDS011;2929;50.810;8.342;2023-11-19T13:32:31;13.13;;;2.80;;
5805;SDS011;2929;50.810;8.342;2023-11-19T13:42:10;16.33;;;3.40;;
5805;SDS011;2929;50.810;8.342;2023-11-19T14:05:12;15.93;;;2.60;;
5805;SDS011;2929;50.810;8.342;2023-11-19T14:07:41;10.57;;;1.97;;
5805;SDS011;2929;50.810;8.342;2023-11-19T14:10:09;7.70;;;2.10;;
5805;SDS011;2929;50.810;8.342;2023-11-19T14:12:37;16.23;;;2.40;;
5805;SDS011;2929;50.810;8.342;2023-11-19T14:15:04;16.87;;;2.43;;
5805;SDS011;2929;50.810;8.342;2023-11-19T14:17:33;16.07;;;2.30;;
5805;SDS011;2929;50.810;8.342;2023-11-19T14:20:00;9.90;;;1.93;;
5805;SDS011;2929;50.810;8.342;2023-11-19T14:22:31;9.40;;;2.00;;
5805;SDS011;2929;50.810;8.342;2023-11-19T14:24:58;20.57;;;2.30;;
5805;SDS011;2929;50.810;8.342;2023-11-19T14:27:25;5.80;;;1.43;;
5805;SDS011;2929;50.810;8.342;2023-11-19T14:29:53;16.20;;;1.90;;
5805;SDS011;2929;50.810;8.342;2023-11-19T14:32:20;11.03;;;2.67;;
5805;SDS011;2929;50.810;8.342;2023-11-19T14:34:48;7.30;;;1.60;;
5805;SDS011;2929;50.810;8.342;2023-11-19T14:37:15;10.00;;;1.87;;
5805;SDS011;2929;50.810;8.342;2023-11-19T14:39:44;8.80;;;1.83;;
5805;SDS011;2929;50.810;8.342;2023-11-19T14:42:11;11.77;;;2.07;;
5805;SDS011;2929;50.810;8.342;2023-11-19T14:44:39;10.60;;;1.97;;
5805;SDS011;2929;50.810;8.342;2023-11-19T14:47:06;8.13;;;1.60;;
5805;SDS011;2929;50.810;8.342;2023-11-19T14:49:34;9.57;;;1.70;;
5805;SDS011;2929;50.810;8.342;2023-11-19T14:52:02;12.43;;;2.00;;
5805;SDS011;2929;50.810;8.342;2023-11-19T14:54:29;6.73;;;1.83;;
5805;SDS011;2929;50.810;8.342;2023-11-19T14:56:57;10.10;;;2.40;;
5805;SDS011;2929;50.810;8.342;2023-11-19T14:59:25;13.07;;;2.33;;
5805;SDS011;2929;50.810;8.342;2023-11-19T15:01:53;6.93;;;1.73;;
5805;SDS011;2929;50.810;8.342;2023-11-19T15:04:20;8.70;;;2.20;;
5805;SDS011;2929;50.810;8.342;2023-11-19T15:09:35;8.70;;;2.10;;
5805;SDS011;2929;50.810;8.342;2023-11-19T15:12:04;8.87;;;2.50;;
5805;SDS011;2929;50.810;8.342;2023-11-19T15:14:34;10.60;;;2.80;;
5805;SDS011;2929;50.810;8.342;2023-11-19T15:17:02;15.60;;;2.53;;
5805;SDS011;2929;50.810;8.342;2023-11-19T15:19:31;17.50;;;3.23;;
5805;SDS011;2929;50.810;8.342;2023-11-19T15:22:00;15.90;;;2.70;;
5805;SDS011;2929;50.810;8.342;2023-11-19T15:24:30;16.00;;;2.97;;
5805;SDS011;2929;50.810;8.342;2023-11-19T15:27:00;17.47;;;2.70;;
5805;SDS011;2929;50.810;8.342;2023-11-19T15:29:29;13.13;;;2.40;;
5805;SDS011;2929;50.810;8.342;2023-11-19T15:31:59;8.83;;;2.40;;
5805;SDS011;2929;50.810;8.342;2023-11-19T15:34:28;23.67;;;6.40;;
5805;SDS011;2929;50.810;8.342;2023-11-19T15:36:55;24.00;;;5.37;;
5805;SDS011;2929;50.810;8.342;2023-11-19T15:39:24;18.37;;;3.43;;
5805;SDS011;2929;50.810;8.342;2023-11-19T15:41:52;30.93;;;5.43;;
5805;SDS011;2929;50.810;8.342;2023-11-19T15:44:20;18.83;;;3.30;;
5805;SDS011;2929;50.810;8.342;2023-11-19T15:46:49;14.33;;;3.07;;
5805;SDS011;2929;50.810;8.342;2023-11-19T15:49:16;10.03;;;2.73;;
5805;SDS011;2929;50.810;8.342;2023-11-19T15:51:44;12.70;;;2.73;;
5805;SDS011;2929;50.810;8.342;2023-11-19T15:54:13;19.40;;;3.80;;
5805;SDS011;2929;50.810;8.342;2023-11-19T15:56:40;14.37;;;2.03;;
5805;SDS011;2929;50.810;8.342;2023-11-19T15:59:07;16.13;;;2.30;;
5805;SDS011;2929;50.810;8.342;2023-11-19T16:01:41;21.63;;;2.87;;
5805;SDS011;2929;50.810;8.342;2023-11-19T16:04:10;17.90;;;3.40;;
5805;SDS011;2929;50.810;8.342;2023-11-19T16:06:37;11.80;;;2.80;;
5805;SDS011;2929;50.810;8.342;2023-11-19T16:09:04;19.40;;;4.13;;
5805;SDS011;2929;50.810;8.342;2023-11-19T16:14:20;11.57;;;3.17;;
5805;SDS011;2929;50.810;8.342;2023-11-19T16:16:47;13.67;;;3.00;;
5805;SDS011;2929;50.810;8.342;2023-11-19T16:19:18;23.20;;;3.77;;
5805;SDS011;2929;50.810;8.342;2023-11-19T16:21:45;16.63;;;3.40;;
5805;SDS011;2929;50.810;8.342;2023-11-19T16:24:31;17.60;;;2.93;;
5805;SDS011;2929;50.810;8.342;2023-11-19T16:27:02;21.83;;;2.77;;
5805;SDS011;2929;50.810;8.342;2023-11-19T16:29:30;15.77;;;3.23;;
5805;SDS011;2929;50.810;8.342;2023-11-19T16:31:58;10.03;;;2.30;;
5805;SDS011;2929;50.810;8.342;2023-11-19T16:34:28;16.87;;;3.00;;
5805;SDS011;2929;50.810;8.342;2023-11-19T16:36:59;15.03;;;2.60;;